Time;durP1;ratioP1;P1;durP2;ratioP2;P2;SDS_P1;SDS_P2;PMS_P1;PMS_P2;Temp;Humidity;BMP_temperature;BMP_pressure;BME280_temperature;BME280_humidity;BME280_pressure;Samples;Min_cycle;Max_cycle;Signal;HPM_P1;HPM_P2
2023/11/04 00:00:42;;;;;;;13.47;4.20;;;8.00;54.50;;;;;;5102737;28;20394;-74
2023/11/04 00:03:07;;;;;;;14.20;3.77;;;8.20;54.60;;;;;;5105198;28;20756;-73
2023/11/04 00:05:33;;;;;;;9.90;3.47;;;8.10;54.80;;;;;;5109360;28;20397;-73
2023/11/04 00:07:59;;;;;;;11.57;3.77;;;8.10;55.20;;;;;;5096975;28;20409;-73
2023/11/04 00:10:24;;;;;;;8.90;3.57;;;8.20;55.60;;;;;;5095074;28;20427;-74
2023/11/04 00:12:50;;;;;;;9.37;3.30;;;8.30;55.60;;;;;;5094746;28;20378;-73
2023/11/04 00:15:16;;;;;;;6.60;3.10;;;8.50;54.70;;;;;;5094567;28;20887;-72
2023/11/04 00:17:41;;;;;;;7.13;3.30;;;8.60;52.30;;;;;;5094904;28;20382;-72
2023/11/04 00:20:07;;;;;;;7.20;3.20;;;8.70;51.60;;;;;;5095353;28;20860;-72
2023/11/04 00:22:34;;;;;;;9.50;3.47;;;8.70;51.50;;;;;;5094848;28;20386;-74
2023/11/04 00:25:00;;;;;;;9.90;3.08;;;8.70;52.20;;;;;;5095038;28;20973;-74
2023/11/04 00:27:26;;;;;;;8.82;3.47;;;8.70;51.80;;;;;;5094504;28;20417;-73
2023/11/04 00:29:51;;;;;;;7.40;3.17;;;8.80;51.10;;;;;;5094839;28;20402;-73
2023/11/04 00:32:17;;;;;;;8.83;3.10;;;8.90;50.80;;;;;;5094422;28;20405;-73
2023/11/04 00:34:43;;;;;;;5.63;2.65;;;9.00;49.10;;;;;;5094756;28;20370;-72
2023/11/04 00:37:12;;;;;;;4.28;2.25;;;9.10;47.80;;;;;;5094209;28;20891;-73
2023/11/04 00:39:37;;;;;;;4.90;2.30;;;9.20;46.20;;;;;;5094198;28;20385;-73
2023/11/04 00:42:03;;;;;;;5.47;2.17;;;9.30;45.10;;;;;;5093709;28;20760;-73
2023/11/04 00:44:29;;;;;;;4.65;2.00;;;9.30;44.40;;;;;;5094175;28;20858;-73
2023/11/04 00:46:55;;;;;;;4.60;2.07;;;9.40;43.20;;;;;;5093910;28;20404;-73
2023/11/04 00:49:21;;;;;;;6.37;1.97;;;9.40;43.70;;;;;;5094928;28;20982;-74
2023/11/04 00:51:46;;;;;;;4.07;2.40;;;9.30;45.00;;;;;;5094060;28;20717;-73
2023/11/04 00:54:12;;;;;;;6.28;2.60;;;9.20;45.80;;;;;;5094390;28;20392;-74
2023/11/04 00:56:38;;;;;;;5.50;2.00;;;9.20;46.00;;;;;;5093694;28;20374;-72
2023/11/04 00:59:03;;;;;;;5.20;1.90;;;9.20;45.70;;;;;;5093922;28;20413;-74
2023/11/04 01:01:29;;;;;;;3.10;1.70;;;9.30;44.50;;;;;;5094155;28;20404;-72
2023/11/04 01:03:55;;;;;;;3.83;1.70;;;9.50;43.60;;;;;;5094558;28;20393;-74
2023/11/04 01:06:21;;;;;;;7.10;1.85;;;9.70;42.20;;;;;;5093730;28;20405;-73
2023/11/04 01:08:46;;;;;;;3.70;1.37;;;9.70;41.70;;;;;;5093981;28;20893;-74
2023/11/04 01:11:12;;;;;;;2.80;1.20;;;9.80;40.80;;;;;;5093620;28;20382;-74
2023/11/04 01:13:39;;;;;;;1.83;1.10;;;9.80;40.40;;;;;;5093580;28;20366;-74
2023/11/04 01:16:05;;;;;;;4.32;1.55;;;9.80;40.60;;;;;;5092588;28;20382;-73
2023/11/04 01:18:30;;;;;;;3.70;1.30;;;9.80;40.00;;;;;;5093596;28;20965;-72
2023/11/04 01:20:56;;;;;;;3.83;1.30;;;9.70;40.60;;;;;;5093676;28;20386;-72
2023/11/04 01:23:21;;;;;;;3.90;1.53;;;9.60;40.80;;;;;;5093821;28;20865;-74
2023/11/04 01:25:47;;;;;;;2.13;1.27;;;9.50;42.10;;;;;;5093621;28;20884;-74
2023/11/04 01:28:12;;;;;;;5.18;1.30;;;9.50;42.00;;;;;;5093318;28;20918;-74
2023/11/04 01:30:38;;;;;;;2.50;1.25;;;9.50;41.90;;;;;;5093586;28;20390;-74
2023/11/04 01:33:03;;;;;;;1.60;0.80;;;9.50;41.50;;;;;;5093873;28;20385;-74
2023/11/04 01:35:29;;;;;;;1.30;0.80;;;9.60;41.20;;;;;;5093539;28;20462;-73
2023/11/04 01:37:54;;;;;;;2.63;1.10;;;9.60;41.00;;;;;;5094156;28;20389;-73
2023/11/04 01:40:21;;;;;;;2.90;1.00;;;9.60;41.10;;;;;;5103196;28;20382;-72
2023/11/04 01:42:46;;;;;;;4.85;1.20;;;9.60;41.00;;;;;;5115831;28;20420;-72
2023/11/04 01:45:12;;;;;;;1.30;1.00;;;9.60;41.00;;;;;;5106428;28;20457;-74
2023/11/04 01:47:39;;;;;;;2.22;0.90;;;9.60;40.90;;;;;;5093193;28;20398;-72
2023/11/04 01:50:05;;;;;;;3.27;0.90;;;9.70;41.20;;;;;;5096062;28;20483;-73
2023/11/04 01:52:31;;;;;;;1.50;0.90;;;9.70;41.20;;;;;;5093876;28;20825;-73
2023/11/04 01:54:59;;;;;;;3.60;1.20;;;9.70;41.40;;;;;;5094228;28;20382;-72
2023/11/04 01:57:25;;;;;;;2.20;1.00;;;9.70;40.80;;;;;;5092791;28;20390;-72
2023/11/04 01:59:51;;;;;;;5.28;1.10;;;9.70;41.10;;;;;;5092970;28;20914;-74
2023/11/04 02:02:19;;;;;;;1.83;0.90;;;9.80;41.10;;;;;;5092719;28;20391;-73
2023/11/04 02:04:45;;;;;;;1.58;0.88;;;9.80;40.60;;;;;;5092752;28;20876;-73
2023/11/04 02:07:10;;;;;;;2.00;1.00;;;9.90;40.20;;;;;;5092428;28;21084;-73
2023/11/04 02:09:36;;;;;;;1.77;0.90;;;9.90;40.00;;;;;;5093015;28;20378;-73
2023/11/04 02:12:03;;;;;;;1.77;0.93;;;9.90;40.30;;;;;;5092754;28;20845;-73
2023/11/04 02:14:29;;;;;;;4.00;0.93;;;10.00;39.30;;;;;;5092757;28;20393;-72
2023/11/04 02:16:55;;;;;;;2.45;0.90;;;10.00;39.50;;;;;;5092515;28;20864;-74
2023/11/04 02:19:21;;;;;;;1.70;1.00;;;10.10;39.10;;;;;;5092652;28;20390;-72
2023/11/04 02:21:47;;;;;;;2.47;1.10;;;10.10;39.20;;;;;;5092331;28;20397;-72
2023/11/04 02:24:12;;;;;;;2.30;0.90;;;10.10;39.10;;;;;;5092610;28;20549;-73
2023/11/04 02:26:38;;;;;;;1.60;0.90;;;10.10;39.00;;;;;;5091738;28;20432;-74
2023/11/04 02:29:04;;;;;;;2.93;1.10;;;10.10;39.00;;;;;;5092295;28;20430;-74
2023/11/04 02:31:30;;;;;;;2.00;1.10;;;10.10;38.90;;;;;;5092198;28;20379;-73
2023/11/04 02:33:55;;;;;;;3.70;1.20;;;10.20;39.00;;;;;;5092127;28;20926;-73
2023/11/04 02:36:21;;;;;;;3.67;0.90;;;10.20;38.50;;;;;;5092254;28;20385;-72
2023/11/04 02:38:47;;;;;;;1.70;0.90;;;10.20;38.40;;;;;;5092292;28;20378;-74
2023/11/04 02:41:13;;;;;;;2.70;0.98;;;10.20;38.60;;;;;;5091752;28;20394;-73
2023/11/04 02:43:39;;;;;;;1.58;1.10;;;10.20;38.80;;;;;;5092298;28;20740;-74
2023/11/04 02:46:04;;;;;;;2.00;1.20;;;10.20;38.60;;;;;;5091866;28;20385;-72
2023/11/04 02:48:30;;;;;;;2.40;1.02;;;10.20;38.30;;;;;;5092132;28;20515;-74
2023/11/04 02:50:56;;;;;;;4.17;1.00;;;10.20;38.30;;;;;;5090528;28;20386;-73
2023/11/04 02:53:21;;;;;;;1.70;1.10;;;10.20;38.20;;;;;;5092045;28;20566;-73
2023/11/04 02:55:47;;;;;;;2.80;1.00;;;10.30;38.20;;;;;;5091719;28;20374;-74
2023/11/04 02:58:12;;;;;;;1.43;1.10;;;10.30;37.70;;;;;;5092207;28;20428;-74
2023/11/04 03:00:38;;;;;;;1.50;1.00;;;10.30;37.80;;;;;;5091909;28;20438;-72
2023/11/04 03:03:04;;;;;;;2.13;1.00;;;10.30;37.70;;;;;;5091785;28;20377;-72
2023/11/04 03:05:29;;;;;;;2.20;1.10;;;10.30;38.00;;;;;;5091843;28;20394;-73
2023/11/04 03:07:55;;;;;;;2.30;1.20;;;10.20;38.40;;;;;;5091205;28;20760;-73
2023/11/04 03:10:21;;;;;;;2.30;1.10;;;10.20;38.30;;;;;;5090361;28;20741;-73
2023/11/04 03:12:46;;;;;;;1.50;1.17;;;10.80;38.80;;;;;;5091436;28;20374;-73
2023/11/04 03:15:12;;;;;;;2.25;1.23;;;10.20;38.70;;;;;;5091663;28;20450;-73
2023/11/04 03:17:38;;;;;;;1.23;0.90;;;10.30;38.70;;;;;;5091053;28;20791;-73
2023/11/04 03:20:05;;;;;;;1.20;0.80;;;10.30;38.30;;;;;;5091196;28;20382;-73
2023/11/04 03:22:31;;;;;;;1.90;1.00;;;10.30;38.20;;;;;;5091271;28;20382;-73
2023/11/04 03:24:57;;;;;;;1.75;1.00;;;10.20;38.80;;;;;;5091581;28;20378;-72
2023/11/04 03:27:23;;;;;;;1.50;1.10;;;10.20;39.40;;;;;;5092109;28;20837;-74
2023/11/04 03:29:49;;;;;;;2.78;1.17;;;10.30;38.50;;;;;;5091379;28;20385;-74
2023/11/04 03:32:15;;;;;;;5.00;1.08;;;10.30;38.90;;;;;;5091137;28;20386;-72
2023/11/04 03:34:40;;;;;;;4.35;1.95;;;10.30;38.60;;;;;;5091196;28;20378;-72
2023/11/04 03:37:06;;;;;;;9.45;3.97;;;10.30;38.70;;;;;;5090930;28;20393;-72
2023/11/04 03:39:32;;;;;;;1.80;1.17;;;10.30;38.90;;;;;;5090574;28;20390;-74
2023/11/04 03:41:59;;;;;;;3.70;1.00;;;10.30;39.00;;;;;;5110960;22;20430;-70
2023/11/04 03:44:24;;;;;;;1.83;1.20;;;10.30;39.00;;;;;;5072623;28;20840;-71
2023/11/04 03:46:50;;;;;;;2.70;1.20;;;10.30;39.70;;;;;;5091010;28;20459;-71
2023/11/04 03:49:16;;;;;;;3.50;1.40;;;10.30;39.40;;;;;;5093556;28;20394;-70
2023/11/04 03:51:42;;;;;;;1.70;1.20;;;10.40;39.30;;;;;;5102813;28;20380;-70
2023/11/04 03:54:08;;;;;;;2.97;1.20;;;10.40;39.10;;;;;;5103760;28;20384;-70
2023/11/04 03:56:33;;;;;;;2.83;1.20;;;10.30;39.50;;;;;;5096301;28;20390;-70
2023/11/04 03:58:59;;;;;;;2.58;1.08;;;10.40;39.60;;;;;;5093650;28;20460;-70
2023/11/04 04:01:24;;;;;;;3.67;1.10;;;10.30;39.80;;;;;;5092163;28;20821;-70
2023/11/04 04:03:51;;;;;;;2.53;1.30;;;10.40;39.60;;;;;;5090222;28;20374;-70
2023/11/04 04:06:17;;;;;;;2.75;1.35;;;10.40;39.90;;;;;;5089868;28;20400;-70
2023/11/04 04:08:42;;;;;;;2.50;1.30;;;10.40;39.90;;;;;;5090204;28;20394;-69
2023/11/04 04:11:09;;;;;;;3.80;1.10;;;10.30;40.10;;;;;;5091176;28;20899;-71
2023/11/04 04:13:35;;;;;;;2.70;1.23;;;10.30;40.40;;;;;;5074885;28;20406;-71
2023/11/04 04:16:01;;;;;;;3.00;1.10;;;10.30;40.50;;;;;;5090118;28;20487;-70
2023/11/04 04:18:26;;;;;;;3.50;1.80;;;10.20;41.00;;;;;;5072357;28;20411;-70
2023/11/04 04:20:52;;;;;;;3.40;1.10;;;10.20;41.20;;;;;;5090268;28;20886;-70
2023/11/04 04:23:18;;;;;;;2.60;1.60;;;10.20;41.80;;;;;;5090078;28;20374;-70
2023/11/04 04:25:43;;;;;;;4.95;1.60;;;10.20;42.00;;;;;;5090608;28;20755;-71
2023/11/04 04:28:09;;;;;;;3.20;1.50;;;10.30;41.80;;;;;;5072228;28;20923;-70
2023/11/04 04:30:34;;;;;;;1.60;1.30;;;10.20;42.30;;;;;;5090316;28;20539;-70
2023/11/04 04:33:00;;;;;;;4.50;2.10;;;10.30;42.20;;;;;;5090023;28;20951;-70
2023/11/04 04:35:26;;;;;;;2.60;1.70;;;10.30;42.40;;;;;;5090150;28;20382;-72
2023/11/04 04:37:51;;;;;;;4.73;1.70;;;10.20;42.60;;;;;;5089958;28;20424;-70
2023/11/04 04:40:17;;;;;;;2.10;1.20;;;10.20;42.70;;;;;;5090090;28;20382;-70
2023/11/04 04:42:42;;;;;;;5.00;1.50;;;10.30;42.70;;;;;;5089866;28;20915;-70
2023/11/04 04:45:09;;;;;;;2.47;1.30;;;10.30;42.60;;;;;;5089822;28;20382;-69
2023/11/04 04:47:37;;;;;;;3.80;1.40;;;10.30;42.60;;;;;;5089856;28;20771;-69
2023/11/04 04:50:04;;;;;;;3.40;1.40;;;10.30;42.60;;;;;;5091272;28;20390;-70
2023/11/04 04:52:30;;;;;;;3.00;1.15;;;10.40;42.10;;;;;;5075206;28;20374;-70
2023/11/04 04:54:56;;;;;;;2.00;1.20;;;10.40;42.50;;;;;;5093156;28;20682;-70
2023/11/04 04:57:22;;;;;;;2.67;1.55;;;10.40;42.50;;;;;;5093327;28;20386;-72
2023/11/04 04:59:48;;;;;;;7.23;1.30;;;10.40;42.40;;;;;;5075281;28;20980;-72
2023/11/04 05:02:13;;;;;;;5.90;1.40;;;10.40;42.60;;;;;;5093068;28;20421;-70
2023/11/04 05:04:39;;;;;;;2.80;1.47;;;10.40;42.40;;;;;;5093186;28;20744;-71
2023/11/04 05:07:04;;;;;;;5.50;1.50;;;10.30;43.00;;;;;;5093128;28;20390;-70
2023/11/04 05:09:30;;;;;;;4.70;1.70;;;10.40;42.90;;;;;;5093135;28;20374;-71
2023/11/04 05:11:55;;;;;;;2.00;1.10;;;10.30;43.60;;;;;;5093015;28;20408;-70
2023/11/04 05:14:21;;;;;;;3.25;1.33;;;10.30;43.60;;;;;;5093368;28;20389;-70
2023/11/04 05:16:47;;;;;;;4.70;1.40;;;10.30;43.50;;;;;;5092922;28;20374;-71
2023/11/04 05:19:12;;;;;;;3.97;1.90;;;10.20;44.50;;;;;;5093038;28;20857;-70
2023/11/04 05:21:38;;;;;;;4.50;1.40;;;10.00;45.40;;;;;;5074698;28;20393;-72
2023/11/04 05:24:04;;;;;;;2.70;1.63;;;10.00;45.80;;;;;;5092927;28;20477;-70
2023/11/04 05:26:29;;;;;;;3.72;1.90;;;10.00;45.60;;;;;;5092798;28;20430;-70
2023/11/04 05:28:55;;;;;;;4.18;1.70;;;10.00;45.90;;;;;;5092816;28;20386;-70
2023/11/04 05:31:21;;;;;;;2.00;1.23;;;10.00;45.40;;;;;;5096050;28;20398;-73
2023/11/04 05:33:47;;;;;;;2.17;1.40;;;10.00;45.80;;;;;;5096625;28;20747;-72
2023/11/04 05:36:13;;;;;;;3.50;1.40;;;10.10;45.70;;;;;;5092579;28;20457;-72
2023/11/04 05:38:39;;;;;;;3.80;1.50;;;10.00;46.10;;;;;;5092940;28;20882;-70
2023/11/04 05:41:06;;;;;;;3.20;1.73;;;10.00;46.30;;;;;;5092579;28;20382;-70
2023/11/04 05:43:31;;;;;;;2.90;1.50;;;9.90;47.90;;;;;;5074699;28;20397;-70
2023/11/04 05:45:57;;;;;;;3.13;1.10;;;9.90;47.20;;;;;;5092685;28;20386;-70
2023/11/04 05:48:23;;;;;;;3.90;1.40;;;9.90;47.10;;;;;;5092432;28;20394;-71
2023/11/04 05:50:48;;;;;;;1.90;1.20;;;9.90;47.00;;;;;;5092725;28;20378;-69
2023/11/04 05:53:16;;;;;;;4.70;1.70;;;9.90;46.80;;;;;;5074156;28;20867;-71
2023/11/04 05:55:41;;;;;;;2.65;1.20;;;10.00;47.00;;;;;;5092560;28;20432;-70
2023/11/04 05:58:07;;;;;;;3.20;1.20;;;10.00;47.40;;;;;;5092192;28;20386;-71
2023/11/04 06:00:33;;;;;;;3.40;1.50;;;10.00;46.90;;;;;;5092210;28;20382;-72
2023/11/04 06:02:59;;;;;;;2.85;1.33;;;10.10;46.80;;;;;;5091766;28;20392;-71
2023/11/04 06:05:24;;;;;;;2.60;1.20;;;10.10;46.50;;;;;;5092553;28;20378;-71
2023/11/04 06:07:50;;;;;;;2.10;1.43;;;10.10;46.20;;;;;;5092512;28;20389;-71
2023/11/04 06:10:16;;;;;;;2.00;1.40;;;10.20;46.10;;;;;;5092655;28;20378;-71
2023/11/04 06:12:42;;;;;;;2.33;1.40;;;10.20;46.50;;;;;;5092288;28;20459;-71
2023/11/04 06:15:08;;;;;;;5.60;1.10;;;10.20;46.40;;;;;;5091846;28;20374;-73
2023/11/04 06:17:34;;;;;;;2.63;1.00;;;10.30;46.30;;;;;;5091884;28;20471;-70
2023/11/04 06:19:59;;;;;;;3.50;1.40;;;10.20;46.50;;;;;;5091853;28;20479;-72
2023/11/04 06:22:25;;;;;;;4.00;1.40;;;10.20;46.90;;;;;;5092056;28;20382;-70
2023/11/04 06:24:52;;;;;;;2.70;1.50;;;10.20;46.60;;;;;;5091850;28;20452;-70
2023/11/04 06:27:18;;;;;;;4.70;1.40;;;10.20;47.10;;;;;;5091426;28;20806;-70
2023/11/04 06:29:44;;;;;;;5.03;1.80;;;10.10;47.60;;;;;;5091928;28;20382;-69
2023/11/04 06:32:10;;;;;;;7.60;1.80;;;9.90;48.70;;;;;;5093431;28;20432;-71
2023/11/04 06:34:35;;;;;;;4.10;1.40;;;9.80;49.10;;;;;;5094062;28;20378;-74
2023/11/04 06:37:02;;;;;;;2.50;1.20;;;9.80;49.60;;;;;;5075630;28;20443;-71
2023/11/04 06:39:28;;;;;;;2.97;1.40;;;9.70;50.70;;;;;;5093540;28;20389;-71
2023/11/04 06:41:53;;;;;;;2.28;1.50;;;9.70;50.80;;;;;;5095255;28;20390;-73
2023/11/04 06:44:19;;;;;;;3.00;1.40;;;9.60;52.20;;;;;;5095256;28;20386;-70
2023/11/04 06:46:48;;;;;;;2.40;1.40;;;9.60;51.60;;;;;;5094170;28;20378;-72
2023/11/04 06:49:14;;;;;;;5.97;1.40;;;9.60;52.20;;;;;;5093456;28;20394;-73
2023/11/04 06:51:40;;;;;;;2.40;1.50;;;9.60;51.90;;;;;;5092513;28;20773;-72
2023/11/04 06:54:05;;;;;;;1.40;1.10;;;9.60;52.20;;;;;;5092720;28;20382;-70
2023/11/04 06:56:31;;;;;;;3.30;1.20;;;9.50;52.80;;;;;;5093194;28;20842;-71
2023/11/04 06:58:57;;;;;;;3.27;1.17;;;9.60;52.60;;;;;;5091651;28;20413;-71
2023/11/04 07:01:24;;;;;;;2.90;1.30;;;9.70;52.70;;;;;;5091536;28;20789;-71
2023/11/04 07:03:49;;;;;;;4.00;1.40;;;9.80;52.20;;;;;;5091195;28;20412;-71
2023/11/04 07:06:18;;;;;;;2.05;1.30;;;9.80;51.30;;;;;;5090989;28;20420;-71
2023/11/04 07:08:45;;;;;;;4.35;1.30;;;9.90;51.50;;;;;;5091993;28;20398;-73
2023/11/04 07:11:16;;;;;;;3.65;1.40;;;9.90;51.10;;;;;;5093127;28;20390;-70
2023/11/04 07:13:42;;;;;;;6.47;1.70;;;10.00;50.40;;;;;;5099941;28;20374;-71
2023/11/04 07:16:11;;;;;;;1.90;1.20;;;10.10;50.30;;;;;;5104626;28;20420;-71
2023/11/04 07:18:38;;;;;;;3.50;1.20;;;10.10;49.10;;;;;;5105468;28;20381;-72
2023/11/04 07:21:04;;;;;;;2.70;1.33;;;10.20;48.50;;;;;;5095232;28;20748;-70
2023/11/04 07:23:29;;;;;;;2.30;1.30;;;10.20;48.90;;;;;;5091157;28;20436;-70
2023/11/04 07:25:55;;;;;;;6.30;1.10;;;10.20;48.10;;;;;;5090700;28;20378;-70
2023/11/04 07:28:25;;;;;;;1.40;1.00;;;10.20;48.70;;;;;;5090579;28;20420;-71
2023/11/04 07:30:52;;;;;;;4.30;1.40;;;10.10;49.40;;;;;;5090736;28;20457;-71
2023/11/04 07:33:19;;;;;;;2.90;1.33;;;10.20;49.40;;;;;;5090705;28;20404;-72
2023/11/04 07:35:45;;;;;;;4.70;1.70;;;10.30;49.50;;;;;;5090740;28;20677;-72
2023/11/04 07:38:10;;;;;;;2.97;1.40;;;10.40;49.10;;;;;;5090374;28;20391;-70
2023/11/04 07:40:36;;;;;;;2.30;1.30;;;10.40;48.40;;;;;;5090631;28;20382;-72
2023/11/04 07:43:03;;;;;;;2.40;1.40;;;10.40;47.50;;;;;;5090119;28;20693;-71
2023/11/04 07:45:28;;;;;;;2.10;1.43;;;10.50;47.80;;;;;;5090440;28;20386;-73
2023/11/04 07:47:54;;;;;;;2.70;1.40;;;10.60;46.80;;;;;;5090723;28;20401;-73
2023/11/04 07:50:20;;;;;;;2.40;1.10;;;10.60;47.70;;;;;;5090469;28;20452;-71
2023/11/04 07:52:45;;;;;;;3.27;1.30;;;10.70;47.00;;;;;;5089280;28;20455;-72
2023/11/04 07:55:11;;;;;;;2.80;1.50;;;10.80;46.80;;;;;;5090806;28;20394;-71
2023/11/04 07:57:40;;;;;;;2.22;1.20;;;10.90;46.30;;;;;;5090994;28;20420;-73
2023/11/04 08:00:10;;;;;;;4.73;1.50;;;10.80;45.40;;;;;;5090999;28;20469;-73
2023/11/04 08:02:37;;;;;;;2.50;1.30;;;10.90;46.70;;;;;;5089248;28;20477;-72
2023/11/04 08:05:03;;;;;;;3.10;1.25;;;10.90;46.10;;;;;;5070074;28;20877;-72
2023/11/04 08:07:30;;;;;;;2.35;1.40;;;10.90;46.50;;;;;;5083467;28;20409;-71
2023/11/04 08:10:00;;;;;;;3.00;1.70;;;10.90;47.60;;;;;;5090082;28;20427;-73
2023/11/04 08:12:25;;;;;;;5.50;2.17;;;10.90;48.00;;;;;;5089951;28;20816;-71
2023/11/04 08:14:51;;;;;;;2.92;1.83;;;10.90;47.90;;;;;;5090338;28;20410;-71
2023/11/04 08:17:17;;;;;;;3.85;1.45;;;11.00;47.70;;;;;;5072936;28;20402;-72
2023/11/04 08:19:43;;;;;;;2.15;1.50;;;11.10;46.90;;;;;;5091016;28;20417;-72
2023/11/04 08:22:09;;;;;;;3.40;1.63;;;11.20;46.30;;;;;;5090846;28;20400;-73
2023/11/04 08:24:36;;;;;;;3.28;1.45;;;11.20;45.80;;;;;;5088674;28;20630;-73
2023/11/04 08:27:02;;;;;;;2.03;1.23;;;11.30;46.40;;;;;;5092019;28;20965;-72
2023/11/04 08:29:28;;;;;;;3.20;1.50;;;11.40;45.70;;;;;;5073611;28;20756;-72
2023/11/04 08:31:53;;;;;;;8.80;1.90;;;11.50;45.80;;;;;;5085333;28;20391;-74
2023/11/04 08:34:19;;;;;;;4.70;1.73;;;11.50;45.90;;;;;;5094699;28;20386;-75
2023/11/04 08:36:44;;;;;;;4.57;2.20;;;11.60;44.80;;;;;;5096272;28;20453;-72
2023/11/04 08:39:10;;;;;;;3.28;1.60;;;11.60;44.90;;;;;;5097770;28;20426;-75
2023/11/04 08:41:36;;;;;;;6.30;1.63;;;11.60;44.60;;;;;;5098630;28;20386;-74
2023/11/04 08:44:03;;;;;;;7.13;1.90;;;11.60;44.10;;;;;;5078035;28;20401;-73
2023/11/04 08:46:28;;;;;;;3.30;1.60;;;11.60;44.30;;;;;;5074732;28;20396;-72
2023/11/04 08:48:54;;;;;;;3.15;1.60;;;11.70;44.30;;;;;;5091761;28;20414;-73
2023/11/04 08:51:21;;;;;;;3.28;1.70;;;11.70;44.40;;;;;;5093270;28;20374;-72
2023/11/04 08:53:47;;;;;;;2.92;1.60;;;11.70;44.50;;;;;;5093101;28;20849;-75
2023/11/04 08:56:12;;;;;;;7.38;1.83;;;11.80;44.00;;;;;;5093066;28;20488;-73
2023/11/04 08:58:38;;;;;;;5.35;1.83;;;11.90;44.20;;;;;;5093004;28;20394;-74
2023/11/04 09:01:04;;;;;;;2.50;1.40;;;12.00;43.00;;;;;;5093299;28;20426;-71
2023/11/04 09:03:30;;;;;;;2.70;1.33;;;12.00;42.60;;;;;;5093577;28;20635;-72
2023/11/04 09:05:55;;;;;;;3.20;1.40;;;12.10;42.50;;;;;;5094404;28;20382;-73
2023/11/04 09:08:21;;;;;;;3.95;1.80;;;12.20;42.80;;;;;;5075627;28;20801;-75
2023/11/04 09:10:47;;;;;;;2.88;1.40;;;12.50;41.10;;;;;;5057460;28;20880;-75
2023/11/04 09:13:13;;;;;;;4.55;1.15;;;12.50;40.50;;;;;;5074149;28;20462;-74
2023/11/04 09:15:39;;;;;;;7.30;1.40;;;12.60;39.60;;;;;;5081259;28;20401;-74
2023/11/04 09:18:05;;;;;;;2.97;1.33;;;12.70;39.40;;;;;;5093889;28;20501;-72
2023/11/04 09:20:31;;;;;;;2.92;1.60;;;12.60;38.70;;;;;;5095429;28;20416;-73
2023/11/04 09:22:57;;;;;;;4.60;1.40;;;12.60;39.70;;;;;;5093369;28;20382;-75
2023/11/04 09:25:22;;;;;;;2.13;1.40;;;12.50;39.40;;;;;;5090964;28;20447;-75
2023/11/04 09:27:49;;;;;;;4.22;1.50;;;12.50;39.50;;;;;;5093894;28;21094;-73
2023/11/04 09:30:16;;;;;;;4.07;1.58;;;12.40;40.70;;;;;;5076966;28;20394;-71
2023/11/04 09:32:42;;;;;;;5.32;1.60;;;12.40;39.40;;;;;;5095234;28;20386;-73
2023/11/04 09:35:12;;;;;;;3.72;1.45;;;12.50;39.60;;;;;;5103535;28;20469;-71
2023/11/04 09:37:39;;;;;;;5.95;1.40;;;12.60;39.40;;;;;;5091261;28;20382;-74
2023/11/04 09:40:05;;;;;;;4.47;1.30;;;12.60;39.10;;;;;;5095004;28;20389;-75
2023/11/04 09:42:31;;;;;;;4.07;1.70;;;12.60;38.90;;;;;;5096410;23;20471;-72
2023/11/04 09:44:57;;;;;;;1.90;1.30;;;12.70;39.20;;;;;;5070892;28;20383;-71
2023/11/04 09:47:23;;;;;;;23.00;3.40;;;12.90;38.70;;;;;;5070285;28;20403;-73
2023/11/04 09:49:49;;;;;;;3.30;1.50;;;13.10;37.70;;;;;;5052848;28;20873;-73
2023/11/04 09:52:16;;;;;;;7.20;1.90;;;13.10;37.10;;;;;;5075965;28;20461;-72
2023/11/04 09:54:46;;;;;;;2.83;1.55;;;13.10;37.50;;;;;;5072791;28;20904;-71
2023/11/04 09:57:13;;;;;;;3.72;1.40;;;13.00;37.70;;;;;;5090171;28;20425;-72
2023/11/04 09:59:39;;;;;;;2.67;1.50;;;12.80;38.00;;;;;;5090851;28;20875;-72
2023/11/04 10:02:08;;;;;;;1.70;1.40;;;12.70;38.70;;;;;;5090453;28;20468;-72
2023/11/04 10:04:35;;;;;;;6.25;1.58;;;12.60;38.20;;;;;;5090866;28;20386;-74
2023/11/04 10:07:01;;;;;;;3.30;1.60;;;12.70;37.70;;;;;;5072611;28;20448;-73
2023/11/04 10:09:27;;;;;;;3.63;1.40;;;12.70;37.80;;;;;;5091031;28;20386;-70
2023/11/04 10:11:53;;;;;;;2.60;1.60;;;12.80;36.90;;;;;;5097761;28;20443;-72
2023/11/04 10:14:21;;;;;;;2.60;1.40;;;12.90;36.20;;;;;;5090572;28;20787;-73
2023/11/04 10:16:47;;;;;;;4.57;1.63;;;13.20;35.40;;;;;;5090974;28;20457;-71
2023/11/04 10:19:14;;;;;;;3.38;1.30;;;13.50;34.50;;;;;;5090821;28;20418;-72
2023/11/04 10:21:40;;;;;;;4.18;1.50;;;13.60;33.50;;;;;;5090051;28;20394;-73
2023/11/04 10:24:07;;;;;;;4.00;1.65;;;13.70;32.80;;;;;;5088719;28;20424;-74
2023/11/04 10:26:33;;;;;;;4.60;1.65;;;13.70;32.00;;;;;;5091744;28;20412;-75
2023/11/04 10:28:59;;;;;;;7.40;1.90;;;13.50;32.50;;;;;;5091850;28;20880;-72
2023/11/04 10:31:25;;;;;;;4.00;1.40;;;13.40;33.40;;;;;;5090766;28;20815;-71
2023/11/04 10:33:55;;;;;;;2.95;1.80;;;13.30;33.80;;;;;;5090543;28;20398;-72
2023/11/04 10:36:21;;;;;;;4.63;1.60;;;13.30;33.40;;;;;;5084960;28;20727;-72
2023/11/04 10:38:56;;;;;;;5.00;1.88;;;13.20;33.90;;;;;;5082594;28;20478;-71
2023/11/04 10:41:46;;;;;;;4.40;1.90;;;13.10;34.70;;;;;;5071607;28;20384;-74
2023/11/04 10:44:15;;;;;;;5.00;1.70;;;13.20;34.70;;;;;;5061547;28;20404;-73
2023/11/04 10:46:51;;;;;;;7.70;2.17;;;13.10;34.50;;;;;;5091672;28;20386;-72
2023/11/04 10:49:25;;;;;;;5.93;1.63;;;13.00;34.60;;;;;;5091615;28;20390;-73
2023/11/04 10:51:58;;;;;;;6.57;2.00;;;13.00;35.10;;;;;;5091807;28;20478;-75
2023/11/04 10:54:32;;;;;;;4.80;2.30;;;12.90;34.50;;;;;;5092169;28;20390;-72
2023/11/04 10:57:19;;;;;;;5.47;2.20;;;13.00;35.10;;;;;;5087664;28;20395;-73
2023/11/04 10:59:58;;;;;;;4.93;2.00;;;13.00;34.60;;;;;;5071847;28;20881;-74
2023/11/04 11:02:24;;;;;;;4.88;2.15;;;13.00;34.80;;;;;;5071552;28;20777;-71
2023/11/04 11:04:52;;;;;;;4.28;1.70;;;13.00;34.60;;;;;;5071354;28;20917;-73
2023/11/04 11:07:19;;;;;;;13.95;3.53;;;12.90;33.90;;;;;;5072262;28;20406;-72
2023/11/04 11:09:45;;;;;;;20.83;10.97;;;12.90;34.80;;;;;;5082726;28;20450;-75
2023/11/04 11:12:22;;;;;;;8.10;2.10;;;12.90;34.60;;;;;;5088936;28;20386;-72
2023/11/04 11:14:49;;;;;;;5.03;2.20;;;12.90;35.10;;;;;;5089154;28;20374;-71
2023/11/04 11:17:16;;;;;;;4.75;2.30;;;13.00;35.40;;;;;;5089441;28;21171;-72
2023/11/04 11:19:51;;;;;;;5.67;2.20;;;12.90;35.10;;;;;;5072678;28;20474;-73
2023/11/04 11:22:23;;;;;;;6.15;2.30;;;12.80;35.50;;;;;;5089820;28;20393;-74
2023/11/04 11:24:52;;;;;;;6.72;2.28;;;12.80;36.10;;;;;;5090160;28;20761;-71
2023/11/04 11:27:18;;;;;;;4.20;2.40;;;12.70;37.60;;;;;;5087189;28;20432;-72
2023/11/04 11:29:47;;;;;;;5.22;2.58;;;12.50;39.30;;;;;;5089646;28;20398;-73
2023/11/04 11:32:13;;;;;;;8.93;2.30;;;12.40;41.90;;;;;;5089024;28;20444;-71
2023/11/04 11:34:55;;;;;;;4.05;2.10;;;12.30;42.20;;;;;;5089272;28;20899;-71
2023/11/04 11:37:22;;;;;;;3.88;2.00;;;12.00;46.10;;;;;;5087656;28;20493;-72
2023/11/04 11:39:48;;;;;;;6.22;2.20;;;11.90;46.80;;;;;;5077594;28;20402;-70
2023/11/04 11:42:15;;;;;;;8.68;2.60;;;11.90;48.90;;;;;;5086676;28;20400;-70
2023/11/04 11:44:44;;;;;;;7.45;2.55;;;11.70;49.20;;;;;;5070113;28;20923;-73
2023/11/04 11:47:10;;;;;;;7.30;3.10;;;11.60;50.40;;;;;;5071089;28;20473;-72
2023/11/04 11:49:37;;;;;;;7.65;3.00;;;11.70;51.10;;;;;;5080164;28;20378;-74
2023/11/04 11:52:04;;;;;;;6.82;2.80;;;11.80;52.70;;;;;;5090821;28;20406;-72
2023/11/04 11:54:31;;;;;;;5.30;2.50;;;11.80;52.10;;;;;;5089079;28;20370;-72
2023/11/04 11:56:57;;;;;;;6.10;2.58;;;11.90;50.70;;;;;;5086562;28;20447;-71
2023/11/04 11:59:23;;;;;;;5.93;2.53;;;12.00;50.20;;;;;;5089930;28;20390;-71
2023/11/04 12:01:51;;;;;;;8.90;3.15;;;12.10;50.00;;;;;;5085467;28;20384;-73
2023/11/04 12:04:18;;;;;;;7.70;2.20;;;12.20;50.30;;;;;;5055603;28;20766;-72
2023/11/04 12:06:44;;;;;;;6.30;2.87;;;12.40;48.30;;;;;;5074482;28;20735;-74
2023/11/04 12:09:11;;;;;;;7.68;2.00;;;12.40;48.30;;;;;;5081583;28;20385;-73
2023/11/04 12:11:37;;;;;;;8.70;3.97;;;12.50;47.70;;;;;;5108717;28;20417;-74
2023/11/04 12:14:03;;;;;;;6.75;2.30;;;12.50;49.20;;;;;;5084308;28;20473;-72
2023/11/04 12:16:29;;;;;;;10.35;2.53;;;12.30;50.00;;;;;;5096328;28;20386;-72
2023/11/04 12:18:55;;;;;;;29.27;13.50;;;12.10;51.70;;;;;;5112253;28;20388;-73
2023/11/04 12:21:21;;;;;;;5.67;2.60;;;12.00;53.30;;;;;;5111913;28;20389;-73
2023/11/04 12:23:47;;;;;;;5.97;2.70;;;11.90;54.50;;;;;;5084718;28;20388;-73
2023/11/04 12:26:14;;;;;;;4.38;2.45;;;11.80;55.10;;;;;;5073000;28;20383;-70
2023/11/04 12:28:42;;;;;;;8.10;4.28;;;11.70;56.20;;;;;;5074319;28;20403;-71
2023/11/04 12:31:08;;;;;;;4.40;2.20;;;11.60;58.30;;;;;;5072810;28;20400;-73
2023/11/04 12:33:37;;;;;;;5.57;2.60;;;11.50;57.60;;;;;;5075507;28;20474;-74
2023/11/04 12:36:09;;;;;;;3.97;2.50;;;11.40;58.30;;;;;;5078812;28;20406;-75
2023/11/04 12:38:39;;;;;;;8.68;2.53;;;11.30;59.60;;;;;;5085736;28;20378;-72
2023/11/04 12:41:05;;;;;;;10.02;3.28;;;11.30;60.90;;;;;;5094662;28;20381;-73
2023/11/04 12:43:31;;;;;;;6.45;2.80;;;11.40;59.50;;;;;;5081352;28;20435;-74